Witmarsum, Brazil
Current Conditions -  °F | °C
As of 12:10 AM on Tuesday 23 Dec 2014 (Local Time) from SBNF Reporting Station
Broken Clouds Broken Clouds  
Wind Chill: 77°   Ceiling: 6000
Heat Index: 79°   Visibility: 6mi
Dew Point: 66°   Wind: 7mph
Humidity: 69%   Direction: 180°S
Pressure: 30"   Gusts: NA
Location:  26.93°S, 49.8°W
Report Text: SBNF 230210Z 18006KT 9999 FEW030 BKN060 25/19 Q1016
Loading
Personal Weather Stations






























Interactive Weather Map New forecast layout! Learn more

10-Day Weather Forecast

Advertisements
Track Severe Weather on mobile